CheckWX is a tool to help pilots better visualize weather data.  It is not intended as a substitute for an official pre-flight weather briefing.

03:51:07 UTC

KLKV METAR
Lake County Airport
Lakeview, Oregon, USA
Current

58 mins ago

KLKV 050253Z AUTO 28011KT 10SM CLR 22/M02 A3015 RMK AO2 SLP178 T02171017 53006
Observed
Jul-5 @ 02:53 UTC
Wind
  • 280° at 11 KTS
Visibility
10 SM
Flight Rules
VFR
Cloud Levels
  • Clear skies
Temperature
22°C / 72°F
Dewpoint
-2°C / 28°F
Humidity
20%
Altimeter
30.15" Hg
Pressure
1021.02 hPa
Previous

2 hours ago

KLKV 050153Z AUTO 28012KT 10SM CLR 24/00 A3014 RMK AO2 SLP179 T02440000
Observed
Jul-5 @ 01:53 UTC
Wind
  • 280° at 12 KTS
Visibility
10 SM
Flight Rules
VFR
Cloud Levels
  • Clear skies
Temperature
24°C / 75°F
Dewpoint
C / 32°F
Humidity
21%
Altimeter
30.14" Hg
Pressure
1020.62 hPa
Previous

3 hours ago

KLKV 050053Z AUTO 26014G20KT 10SM CLR 26/01 A3013 RMK AO2 SLP178 T02560011
Observed
Jul-5 @ 00:53 UTC
Wind
  • 260° at 14 KTS
  • Gusting to 20 KTS
Visibility
10 SM
Flight Rules
VFR
Cloud Levels
  • Clear skies
Temperature
26°C / 79°F
Dewpoint
C / 34°F
Humidity
20%
Altimeter
30.13" Hg
Pressure
1020.32 hPa